Home   Weather   Russia   Barnaul   Past weeks
Flag for Russia

Past Weather in Barnaul, Russia — Yesterday and Last 2 Weeks

Currently: 57 °F. Sunny. (Weather station: Barnaul Airport, Russia). See more current weather

Past Weather in Barnaul — Graph

°F

Barnaul Temperature Yesterday

Maximum temperature yesterday: 81 °F (at 3:00 pm)
Minimum temperature yesterday: 61 °F (at 6:00 am)
Average temperature yesterday: 71 °F

High & Low Weather Summary for the Past Weeks

 TemperatureHumidityPressure
High84 °F (Jul 29, 3:30 pm)100% (Aug 2, 4:30 am)30.04 "Hg (Aug 2, 4:30 am)
Low52 °F (Aug 4, 5:00 am)28% (Aug 6, 3:00 pm)29.59 "Hg (Jul 29, 10:30 am)
Average69 °F55%29.80 "Hg
* Reported Jul 25 5:00 am — Aug 9 5:30 am, Barnaul. Weather by CustomWeather, © 2022

Note: Actual official high and low records may vary slightly from our data, if they occured in-between our weather recording intervals... More about our weather records

Barnaul Weather History for the Previous 24 Hours

Scroll right to see more
 ConditionsComfort  
Time TempWeatherWind HumidityBarometerVisibility
5:30 am
Tue, Aug 9
57 °FClear.6 mph88%29.77 "Hg10 mi
5:00 am57 °FClear.6 mph88%29.77 "Hg10 mi
4:30 am57 °FClear.6 mph88%29.80 "Hg10 mi
4:00 am59 °FClear.3 mph82%29.80 "Hg10 mi
3:00 am61 °FClear.3 mph77%29.80 "Hg10 mi
2:30 am63 °FClear.3 mph73%29.80 "Hg10 mi
2:00 am63 °FClear.3 mph73%29.80 "Hg10 mi
1:30 am64 °FClear.8 mph68%29.80 "Hg10 mi
1:00 am66 °FClear.10 mph64%29.80 "Hg10 mi
12:00 am66 °FPassing clouds.8 mph64%29.83 "HgN/A
11:30 pm
Mon, Aug 8
66 °FPassing clouds.8 mph64%29.83 "HgN/A
11:00 pm66 °FPassing clouds.10 mph60%29.83 "HgN/A
10:00 pm68 °FPassing clouds.8 mph60%29.83 "HgN/A
9:30 pm70 °FPassing clouds.8 mph53%29.80 "HgN/A
7:00 pm79 °FScattered clouds.10 mph34%29.80 "HgN/A
6:00 pm81 °FSunny.10 mph30%29.80 "Hg10 mi
5:30 pm81 °FSunny.8 mph30%29.80 "Hg10 mi
5:00 pm81 °FSunny.8 mph28%29.80 "Hg10 mi
4:00 pm81 °FPassing clouds.6 mph30%29.80 "HgN/A
3:30 pm81 °FPassing clouds.10 mph30%29.80 "HgN/A
3:00 pm81 °FPassing clouds.8 mph30%29.80 "HgN/A
2:00 pm79 °FPassing clouds.6 mph30%29.80 "HgN/A
1:00 pm79 °FPassing clouds.8 mph30%29.80 "HgN/A
12:00 pm77 °FPassing clouds.3 mph39%29.80 "HgN/A
11:30 am75 °FPassing clouds.3 mph44%29.80 "HgN/A
11:00 am75 °FSunny.1 mph44%29.80 "Hg10 mi
10:30 am73 °FSunny.1 mph50%29.80 "Hg10 mi
10:00 am70 °FSunny.1 mph60%29.80 "Hg10 mi
9:30 am68 °FSunny.3 mph64%29.80 "Hg10 mi
9:00 am66 °FSunny.3 mph68%29.80 "Hg10 mi
8:00 am63 °FClear.3 mph83%29.80 "Hg6 mi
6:30 am63 °FSunny.3 mph68%29.77 "Hg10 mi
6:00 am61 °FSunny.3 mph72%29.77 "Hg10 mi
Weather by CustomWeather, © 2022

See weather overview